CES8185 ZSPD-ZBAA
Flight info
| Callsign | CES8185 |
|---|---|
| Flight time | N/A |
| Altitude | 36100 |
| Route | PIK82D PIKAS G330 PIMOL A593 DALIM W157 BEKDO/K0845S1130 W157 AVBOX AVBOX6J |
| Aircraft | A320/M-SDE3FGHIRWY/LB1 |
Departure
| Time | 2026-05-05 14:17 |
|---|---|
| Airport | Shanghai Pudong International Airport (ZSPD) |
Arrival
| Time | N/A |
|---|---|
| Airport | Beijing Capital International Airport (ZBAA) |
| Time | Latitude | Longitude | Altitude | Speed | Heading |
|---|---|---|---|---|---|
| 2026-05-05 13:29 | 31.14146 | 121.80981 | 21 ft | 0 kts | 72° |
| 2026-05-05 14:00 | 31.14145 | 121.80975 | 21 ft | 2 kts | 72° |
| 2026-05-05 14:00 | 31.14139 | 121.80955 | 21 ft | 1 kts | 72° |
| 2026-05-05 14:00 | 31.14135 | 121.80943 | 21 ft | 2 kts | 61° |
| 2026-05-05 14:01 | 31.14126 | 121.80929 | 21 ft | 2 kts | 41° |
| 2026-05-05 14:01 | 31.14113 | 121.80920 | 21 ft | 2 kts | 21° |
| 2026-05-05 14:01 | 31.14099 | 121.80915 | 21 ft | 2 kts | 2° |
| 2026-05-05 14:01 | 31.14085 | 121.80917 | 21 ft | 0 kts | 345° |
| 2026-05-05 14:02 | 31.14079 | 121.80919 | 21 ft | 1 kts | 341° |
| 2026-05-05 14:02 | 31.14078 | 121.80920 | 21 ft | 0 kts | 341° |
| 2026-05-05 14:04 | 31.14091 | 121.80914 | 21 ft | 3 kts | 344° |
| 2026-05-05 14:05 | 31.14130 | 121.80901 | 21 ft | 7 kts | 342° |
| 2026-05-05 14:05 | 31.14191 | 121.80878 | 21 ft | 11 kts | 342° |
| 2026-05-05 14:05 | 31.14281 | 121.80843 | 21 ft | 10 kts | 342° |
| 2026-05-05 14:05 | 31.14330 | 121.80779 | 21 ft | 13 kts | 261° |
| 2026-05-05 14:06 | 31.14299 | 121.80668 | 21 ft | 15 kts | 251° |
| 2026-05-05 14:06 | 31.14264 | 121.80539 | 21 ft | 17 kts | 252° |
| 2026-05-05 14:06 | 31.14228 | 121.80407 | 21 ft | 16 kts | 251° |
| 2026-05-05 14:06 | 31.14189 | 121.80272 | 21 ft | 18 kts | 251° |
| 2026-05-05 14:07 | 31.14153 | 121.80141 | 21 ft | 15 kts | 252° |
| 2026-05-05 14:07 | 31.14119 | 121.80022 | 21 ft | 15 kts | 252° |
| 2026-05-05 14:07 | 31.14113 | 121.79999 | 21 ft | 0 kts | 252° |
| 2026-05-05 14:08 | 31.14110 | 121.79991 | 21 ft | 3 kts | 252° |
| 2026-05-05 14:08 | 31.14097 | 121.79944 | 21 ft | 8 kts | 252° |
| 2026-05-05 14:08 | 31.14073 | 121.79855 | 21 ft | 13 kts | 252° |
| 2026-05-05 14:08 | 31.14047 | 121.79756 | 21 ft | 13 kts | 260° |
| 2026-05-05 14:09 | 31.14031 | 121.79647 | 21 ft | 11 kts | 268° |
| 2026-05-05 14:09 | 31.14095 | 121.79587 | 21 ft | 14 kts | 342° |
| 2026-05-05 14:09 | 31.14197 | 121.79549 | 21 ft | 16 kts | 342° |
| 2026-05-05 14:09 | 31.14316 | 121.79504 | 21 ft | 18 kts | 342° |
| 2026-05-05 14:10 | 31.14446 | 121.79454 | 21 ft | 20 kts | 342° |
| 2026-05-05 14:10 | 31.14589 | 121.79403 | 21 ft | 22 kts | 340° |
| 2026-05-05 14:10 | 31.14739 | 121.79343 | 21 ft | 23 kts | 342° |
| 2026-05-05 14:10 | 31.14898 | 121.79284 | 21 ft | 24 kts | 342° |
| 2026-05-05 14:11 | 31.15050 | 121.79227 | 21 ft | 17 kts | 342° |
| 2026-05-05 14:11 | 31.15170 | 121.79181 | 21 ft | 18 kts | 342° |
| 2026-05-05 14:11 | 31.15295 | 121.79133 | 21 ft | 19 kts | 342° |
| 2026-05-05 14:11 | 31.15422 | 121.79085 | 21 ft | 15 kts | 342° |
| 2026-05-05 14:12 | 31.15527 | 121.79046 | 21 ft | 16 kts | 342° |
| 2026-05-05 14:12 | 31.15639 | 121.79004 | 21 ft | 17 kts | 343° |
| 2026-05-05 14:12 | 31.15757 | 121.78959 | 21 ft | 18 kts | 342° |
| 2026-05-05 14:12 | 31.15882 | 121.78912 | 21 ft | 19 kts | 342° |
| 2026-05-05 14:13 | 31.15959 | 121.78861 | 21 ft | 8 kts | 292° |
| 2026-05-05 14:13 | 31.15962 | 121.78835 | 21 ft | 0 kts | 263° |
| 2026-05-05 14:13 | 31.15958 | 121.78814 | 21 ft | 5 kts | 254° |
| 2026-05-05 14:14 | 31.15952 | 121.78793 | 21 ft | 0 kts | 253° |
| 2026-05-05 14:14 | 31.15950 | 121.78786 | 21 ft | 2 kts | 252° |
| 2026-05-05 14:14 | 31.15937 | 121.78732 | 21 ft | 10 kts | 255° |
| 2026-05-05 14:14 | 31.15881 | 121.78691 | 21 ft | 7 kts | 164° |
| 2026-05-05 14:15 | 31.15877 | 121.78693 | 21 ft | 0 kts | 163° |
| 2026-05-05 14:15 | 31.15874 | 121.78693 | 21 ft | 0 kts | 163° |
| 2026-05-05 14:15 | 31.15872 | 121.78694 | 21 ft | 0 kts | 163° |
| 2026-05-05 14:16 | 31.15793 | 121.78723 | 21 ft | 43 kts | 162° |
| 2026-05-05 14:16 | 31.15270 | 121.78920 | 22 ft | 112 kts | 162° |
| 2026-05-05 14:16 | 31.14335 | 121.79275 | 24 ft | 167 kts | 162° |
| 2026-05-05 14:16 | 31.13153 | 121.79726 | 404 ft | 184 kts | 163° |
| 2026-05-05 14:17 | 31.11896 | 121.80189 | 993 ft | 195 kts | 164° |
| 2026-05-05 14:17 | 31.10631 | 121.80598 | 1915 ft | 191 kts | 166° |
| 2026-05-05 14:17 | 31.09335 | 121.80999 | 2530 ft | 200 kts | 165° |
| 2026-05-05 14:17 | 31.07893 | 121.81451 | 2839 ft | 227 kts | 165° |
| 2026-05-05 14:18 | 31.06285 | 121.81964 | 2970 ft | 245 kts | 164° |
| 2026-05-05 14:18 | 31.04624 | 121.82501 | 2972 ft | 248 kts | 164° |
| 2026-05-05 14:18 | 31.02960 | 121.83031 | 2973 ft | 249 kts | 167° |
| 2026-05-05 14:18 | 31.01217 | 121.83076 | 2980 ft | 253 kts | 192° |
| 2026-05-05 14:19 | 30.99616 | 121.82164 | 3415 ft | 267 kts | 219° |
| 2026-05-05 14:19 | 30.98505 | 121.80445 | 4388 ft | 270 kts | 245° |
| 2026-05-05 14:19 | 30.97896 | 121.78402 | 5162 ft | 274 kts | 251° |
| 2026-05-05 14:19 | 30.97318 | 121.76276 | 5664 ft | 276 kts | 251° |
| 2026-05-05 14:20 | 30.96735 | 121.74128 | 5876 ft | 277 kts | 251° |
| 2026-05-05 14:20 | 30.96335 | 121.71949 | 5883 ft | 278 kts | 266° |
| 2026-05-05 14:20 | 30.96494 | 121.69664 | 6086 ft | 286 kts | 281° |
| 2026-05-05 14:20 | 30.96910 | 121.67420 | 6955 ft | 288 kts | 282° |
| 2026-05-05 14:21 | 30.97350 | 121.65179 | 7957 ft | 285 kts | 282° |
| 2026-05-05 14:21 | 30.97783 | 121.62943 | 8823 ft | 287 kts | 282° |
| 2026-05-05 14:21 | 30.98218 | 121.60646 | 9639 ft | 290 kts | 282° |
| 2026-05-05 14:21 | 30.98644 | 121.58362 | 10428 ft | 293 kts | 282° |
| 2026-05-05 14:22 | 30.99082 | 121.55997 | 10898 ft | 307 kts | 282° |
| 2026-05-05 14:22 | 30.99540 | 121.53509 | 11238 ft | 325 kts | 282° |
| 2026-05-05 14:22 | 31.00026 | 121.50869 | 11557 ft | 342 kts | 282° |
| 2026-05-05 14:22 | 31.00535 | 121.48097 | 11834 ft | 359 kts | 282° |
| 2026-05-05 14:23 | 31.01060 | 121.45242 | 12334 ft | 369 kts | 282° |
| 2026-05-05 14:23 | 31.01605 | 121.42284 | 13045 ft | 372 kts | 282° |
| 2026-05-05 14:23 | 31.02144 | 121.39360 | 13761 ft | 374 kts | 282° |
| 2026-05-05 14:23 | 31.02686 | 121.36407 | 14458 ft | 376 kts | 282° |
| 2026-05-05 14:24 | 31.03231 | 121.33435 | 15103 ft | 378 kts | 282° |
| 2026-05-05 14:24 | 31.03776 | 121.30459 | 15777 ft | 379 kts | 282° |
| 2026-05-05 14:24 | 31.04328 | 121.27438 | 16465 ft | 380 kts | 282° |
| 2026-05-05 14:24 | 31.04878 | 121.24421 | 17126 ft | 382 kts | 282° |
| 2026-05-05 14:25 | 31.05432 | 121.21388 | 17759 ft | 384 kts | 282° |
| 2026-05-05 14:25 | 31.06102 | 121.18393 | 18323 ft | 387 kts | 291° |
| 2026-05-05 14:25 | 31.07492 | 121.15734 | 18835 ft | 392 kts | 310° |
| 2026-05-05 14:25 | 31.09590 | 121.13657 | 19365 ft | 397 kts | 327° |
| 2026-05-05 14:26 | 31.12145 | 121.12441 | 19874 ft | 405 kts | 345° |
| 2026-05-05 14:26 | 31.14990 | 121.12105 | 20442 ft | 409 kts | 355° |
| 2026-05-05 14:26 | 31.17825 | 121.11963 | 20997 ft | 411 kts | 355° |
| 2026-05-05 14:26 | 31.20688 | 121.11812 | 21503 ft | 414 kts | 355° |
| 2026-05-05 14:27 | 31.23597 | 121.11652 | 22035 ft | 416 kts | 355° |
| 2026-05-05 14:27 | 31.26495 | 121.11488 | 22578 ft | 418 kts | 355° |
| 2026-05-05 14:27 | 31.29413 | 121.11323 | 23069 ft | 421 kts | 355° |
| 2026-05-05 14:27 | 31.32334 | 121.11154 | 23557 ft | 423 kts | 355° |
| 2026-05-05 14:28 | 31.35327 | 121.11083 | 24020 ft | 427 kts | 358° |
| 2026-05-05 14:28 | 31.38303 | 121.11196 | 24441 ft | 430 kts | 0° |
| 2026-05-05 14:28 | 31.41289 | 121.11362 | 24856 ft | 432 kts | 358° |
| 2026-05-05 14:28 | 31.44293 | 121.11115 | 25263 ft | 432 kts | 349° |
| 2026-05-05 14:29 | 31.47222 | 121.10319 | 25671 ft | 432 kts | 341° |
| 2026-05-05 14:29 | 31.50030 | 121.09035 | 26063 ft | 433 kts | 335° |
| 2026-05-05 14:29 | 31.52777 | 121.07595 | 26447 ft | 435 kts | 334° |
| 2026-05-05 14:29 | 31.55536 | 121.06118 | 26802 ft | 437 kts | 334° |
| 2026-05-05 14:30 | 31.58285 | 121.04642 | 27164 ft | 439 kts | 334° |
| 2026-05-05 14:30 | 31.61075 | 121.03148 | 27492 ft | 441 kts | 334° |
| 2026-05-05 14:30 | 31.63876 | 121.01651 | 27777 ft | 443 kts | 334° |
| 2026-05-05 14:30 | 31.66699 | 121.00143 | 28144 ft | 443 kts | 335° |
| 2026-05-05 14:31 | 31.69479 | 120.98658 | 28595 ft | 440 kts | 335° |
| 2026-05-05 14:31 | 31.72264 | 120.97171 | 29037 ft | 438 kts | 335° |
| 2026-05-05 14:31 | 31.75030 | 120.95692 | 29455 ft | 435 kts | 335° |
| 2026-05-05 14:31 | 31.77774 | 120.94228 | 29834 ft | 434 kts | 335° |